sensor_id;sensor_type;location;lat;lon;timestamp;P1;durP1;ratioP1;P2;durP2;ratioP2
16478;SDS011;8350;52.316;10.530;2023-05-10T00:01:34;3.50;;;2.97;;
16478;SDS011;8350;52.316;10.530;2023-05-10T00:04:01;4.10;;;3.53;;
16478;SDS011;8350;52.316;10.530;2023-05-10T00:06:28;5.28;;;3.38;;
16478;SDS011;8350;52.316;10.530;2023-05-10T00:08:58;4.88;;;3.55;;
16478;SDS011;8350;52.316;10.530;2023-05-10T00:11:25;5.72;;;3.70;;
16478;SDS011;8350;52.316;10.530;2023-05-10T00:13:53;4.57;;;3.58;;
16478;SDS011;8350;52.316;10.530;2023-05-10T00:16:20;5.05;;;3.08;;
16478;SDS011;8350;52.316;10.530;2023-05-10T00:18:47;3.83;;;3.50;;
16478;SDS011;8350;52.316;10.530;2023-05-10T00:21:14;4.95;;;3.40;;
16478;SDS011;8350;52.316;10.530;2023-05-10T00:23:42;3.60;;;3.30;;
16478;SDS011;8350;52.316;10.530;2023-05-10T00:26:10;4.40;;;4.00;;
16478;SDS011;8350;52.316;10.530;2023-05-10T00:28:37;4.57;;;3.53;;
16478;SDS011;8350;52.316;10.530;2023-05-10T00:31:04;3.53;;;3.20;;
16478;SDS011;8350;52.316;10.530;2023-05-10T00:33:31;3.80;;;3.50;;
16478;SDS011;8350;52.316;10.530;2023-05-10T00:35:58;4.60;;;4.15;;
16478;SDS011;8350;52.316;10.530;2023-05-10T00:38:25;4.32;;;3.78;;
16478;SDS011;8350;52.316;10.530;2023-05-10T00:40:52;3.63;;;3.30;;
16478;SDS011;8350;52.316;10.530;2023-05-10T00:43:21;6.38;;;3.55;;
16478;SDS011;8350;52.316;10.530;2023-05-10T00:45:48;4.30;;;3.53;;
16478;SDS011;8350;52.316;10.530;2023-05-10T00:48:17;5.75;;;3.85;;
16478;SDS011;8350;52.316;10.530;2023-05-10T00:50:45;4.65;;;3.55;;
16478;SDS011;8350;52.316;10.530;2023-05-10T00:53:12;5.45;;;3.22;;
16478;SDS011;8350;52.316;10.530;2023-05-10T00:55:39;5.45;;;3.40;;
16478;SDS011;8350;52.316;10.530;2023-05-10T00:58:06;4.07;;;3.40;;
16478;SDS011;8350;52.316;10.530;2023-05-10T01:00:34;3.63;;;3.33;;
16478;SDS011;8350;52.316;10.530;2023-05-10T01:03:03;4.05;;;3.67;;
16478;SDS011;8350;52.316;10.530;2023-05-10T01:05:30;3.80;;;3.50;;
16478;SDS011;8350;52.316;10.530;2023-05-10T01:07:57;4.30;;;3.90;;
16478;SDS011;8350;52.316;10.530;2023-05-10T01:10:24;3.83;;;3.53;;
16478;SDS011;8350;52.316;10.530;2023-05-10T01:12:52;5.40;;;3.90;;
16478;SDS011;8350;52.316;10.530;2023-05-10T01:15:21;5.43;;;4.07;;
16478;SDS011;8350;52.316;10.530;2023-05-10T01:17:50;4.75;;;4.35;;
16478;SDS011;8350;52.316;10.530;2023-05-10T01:20:18;4.70;;;4.22;;
16478;SDS011;8350;52.316;10.530;2023-05-10T01:23:00;4.32;;;3.92;;
16478;SDS011;8350;52.316;10.530;2023-05-10T01:25:42;4.55;;;3.88;;
16478;SDS011;8350;52.316;10.530;2023-05-10T01:28:34;4.78;;;4.20;;
16478;SDS011;8350;52.316;10.530;2023-05-10T01:31:18;4.07;;;3.75;;
16478;SDS011;8350;52.316;10.530;2023-05-10T01:33:59;4.13;;;3.80;;
16478;SDS011;8350;52.316;10.530;2023-05-10T01:36:30;4.80;;;3.88;;
16478;SDS011;8350;52.316;10.530;2023-05-10T01:39:00;4.25;;;3.70;;
16478;SDS011;8350;52.316;10.530;2023-05-10T01:41:33;5.00;;;3.80;;
16478;SDS011;8350;52.316;10.530;2023-05-10T01:44:06;5.15;;;4.30;;
16478;SDS011;8350;52.316;10.530;2023-05-10T01:46:39;4.22;;;3.92;;
16478;SDS011;8350;52.316;10.530;2023-05-10T01:49:08;7.13;;;4.35;;
16478;SDS011;8350;52.316;10.530;2023-05-10T01:51:39;5.93;;;4.05;;
16478;SDS011;8350;52.316;10.530;2023-05-10T01:54:11;4.97;;;4.32;;
16478;SDS011;8350;52.316;10.530;2023-05-10T01:56:40;4.38;;;3.95;;
16478;SDS011;8350;52.316;10.530;2023-05-10T01:59:11;5.28;;;4.47;;
16478;SDS011;8350;52.316;10.530;2023-05-10T02:01:41;3.90;;;3.50;;
16478;SDS011;8350;52.316;10.530;2023-05-10T02:04:15;4.65;;;4.22;;
16478;SDS011;8350;52.316;10.530;2023-05-10T02:06:43;4.63;;;3.92;;
16478;SDS011;8350;52.316;10.530;2023-05-10T02:09:15;4.05;;;3.65;;
16478;SDS011;8350;52.316;10.530;2023-05-10T02:11:43;3.95;;;3.65;;
16478;SDS011;8350;52.316;10.530;2023-05-10T02:14:11;4.93;;;3.67;;
16478;SDS011;8350;52.316;10.530;2023-05-10T02:16:38;5.03;;;4.57;;
16478;SDS011;8350;52.316;10.530;2023-05-10T02:19:06;4.28;;;3.88;;
16478;SDS011;8350;52.316;10.530;2023-05-10T02:21:39;6.20;;;4.15;;
16478;SDS011;8350;52.316;10.530;2023-05-10T02:24:10;4.80;;;4.20;;
16478;SDS011;8350;52.316;10.530;2023-05-10T02:26:39;4.20;;;3.80;;
16478;SDS011;8350;52.316;10.530;2023-05-10T02:29:06;4.30;;;3.90;;
16478;SDS011;8350;52.316;10.530;2023-05-10T02:31:35;4.80;;;4.20;;
16478;SDS011;8350;52.316;10.530;2023-05-10T02:34:03;4.25;;;3.70;;
16478;SDS011;8350;52.316;10.530;2023-05-10T02:36:33;4.80;;;4.40;;
16478;SDS011;8350;52.316;10.530;2023-05-10T02:39:02;4.57;;;3.80;;
16478;SDS011;8350;52.316;10.530;2023-05-10T02:41:30;3.90;;;3.47;;
16478;SDS011;8350;52.316;10.530;2023-05-10T02:43:59;5.03;;;3.78;;
16478;SDS011;8350;52.316;10.530;2023-05-10T02:46:29;6.25;;;4.18;;
16478;SDS011;8350;52.316;10.530;2023-05-10T02:48:56;6.97;;;4.57;;
16478;SDS011;8350;52.316;10.530;2023-05-10T02:51:24;4.47;;;4.07;;
16478;SDS011;8350;52.316;10.530;2023-05-10T02:53:55;4.18;;;3.78;;
16478;SDS011;8350;52.316;10.530;2023-05-10T02:56:31;4.68;;;3.63;;
16478;SDS011;8350;52.316;10.530;2023-05-10T02:59:00;4.20;;;3.83;;
16478;SDS011;8350;52.316;10.530;2023-05-10T03:01:30;4.53;;;4.13;;
16478;SDS011;8350;52.316;10.530;2023-05-10T03:03:59;5.32;;;4.60;;
16478;SDS011;8350;52.316;10.530;2023-05-10T03:06:26;5.00;;;4.10;;
16478;SDS011;8350;52.316;10.530;2023-05-10T03:08:56;4.97;;;4.13;;
16478;SDS011;8350;52.316;10.530;2023-05-10T03:14:16;4.47;;;4.10;;
16478;SDS011;8350;52.316;10.530;2023-05-10T03:16:52;5.43;;;4.88;;
16478;SDS011;8350;52.316;10.530;2023-05-10T03:19:24;4.95;;;4.25;;
16478;SDS011;8350;52.316;10.530;2023-05-10T03:21:54;4.97;;;4.57;;
16478;SDS011;8350;52.316;10.530;2023-05-10T03:24:24;5.15;;;4.20;;
16478;SDS011;8350;52.316;10.530;2023-05-10T03:26:57;4.63;;;4.20;;
16478;SDS011;8350;52.316;10.530;2023-05-10T03:29:27;5.50;;;5.00;;
16478;SDS011;8350;52.316;10.530;2023-05-10T03:31:55;5.05;;;4.10;;
16478;SDS011;8350;52.316;10.530;2023-05-10T03:34:24;5.38;;;4.47;;
16478;SDS011;8350;52.316;10.530;2023-05-10T03:36:51;5.82;;;4.45;;
16478;SDS011;8350;52.316;10.530;2023-05-10T03:39:18;5.07;;;4.18;;
16478;SDS011;8350;52.316;10.530;2023-05-10T03:41:46;5.05;;;4.63;;
16478;SDS011;8350;52.316;10.530;2023-05-10T03:44:14;4.57;;;4.10;;
16478;SDS011;8350;52.316;10.530;2023-05-10T03:46:44;5.38;;;4.20;;
16478;SDS011;8350;52.316;10.530;2023-05-10T03:49:11;4.38;;;4.03;;
16478;SDS011;8350;52.316;10.530;2023-05-10T03:51:38;5.32;;;4.80;;
16478;SDS011;8350;52.316;10.530;2023-05-10T03:54:05;5.40;;;4.10;;
16478;SDS011;8350;52.316;10.530;2023-05-10T03:56:32;4.93;;;4.43;;
16478;SDS011;8350;52.316;10.530;2023-05-10T03:58:59;4.47;;;4.07;;
16478;SDS011;8350;52.316;10.530;2023-05-10T04:01:28;4.95;;;4.55;;
16478;SDS011;8350;52.316;10.530;2023-05-10T04:03:54;4.82;;;4.35;;
16478;SDS011;8350;52.316;10.530;2023-05-10T04:06:21;5.03;;;4.25;;
16478;SDS011;8350;52.316;10.530;2023-05-10T04:08:48;5.25;;;4.75;;
16478;SDS011;8350;52.316;10.530;2023-05-10T04:11:15;4.70;;;4.30;;
16478;SDS011;8350;52.316;10.530;2023-05-10T04:13:42;7.28;;;4.75;;
16478;SDS011;8350;52.316;10.530;2023-05-10T04:16:09;4.70;;;4.28;;
16478;SDS011;8350;52.316;10.530;2023-05-10T04:18:38;4.10;;;3.80;;
16478;SDS011;8350;52.316;10.530;2023-05-10T04:21:10;5.60;;;4.72;;
16478;SDS011;8350;52.316;10.530;2023-05-10T04:23:38;8.02;;;4.13;;
16478;SDS011;8350;52.316;10.530;2023-05-10T04:26:05;4.47;;;4.03;;
16478;SDS011;8350;52.316;10.530;2023-05-10T04:28:32;4.40;;;4.00;;
16478;SDS011;8350;52.316;10.530;2023-05-10T04:31:02;5.45;;;4.43;;
16478;SDS011;8350;52.316;10.530;2023-05-10T04:33:30;4.88;;;4.00;;
16478;SDS011;8350;52.316;10.530;2023-05-10T04:35:59;4.50;;;4.10;;
16478;SDS011;8350;52.316;10.530;2023-05-10T04:38:27;4.95;;;4.53;;
16478;SDS011;8350;52.316;10.530;2023-05-10T04:40:54;4.32;;;3.92;;
16478;SDS011;8350;52.316;10.530;2023-05-10T04:43:21;5.22;;;4.75;;
16478;SDS011;8350;52.316;10.530;2023-05-10T04:45:47;4.50;;;4.10;;
16478;SDS011;8350;52.316;10.530;2023-05-10T04:48:15;4.82;;;4.38;;
16478;SDS011;8350;52.316;10.530;2023-05-10T04:50:42;5.15;;;4.65;;
16478;SDS011;8350;52.316;10.530;2023-05-10T04:53:10;4.93;;;4.53;;
16478;SDS011;8350;52.316;10.530;2023-05-10T04:55:37;5.28;;;4.57;;
16478;SDS011;8350;52.316;10.530;2023-05-10T04:58:04;6.72;;;4.20;;
16478;SDS011;8350;52.316;10.530;2023-05-10T05:00:31;4.88;;;4.32;;
16478;SDS011;8350;52.316;10.530;2023-05-10T05:03:00;4.97;;;4.45;;
16478;SDS011;8350;52.316;10.530;2023-05-10T05:05:27;5.38;;;4.68;;
16478;SDS011;8350;52.316;10.530;2023-05-10T05:07:54;4.50;;;4.10;;
16478;SDS011;8350;52.316;10.530;2023-05-10T05:10:23;6.93;;;4.78;;
16478;SDS011;8350;52.316;10.530;2023-05-10T05:12:50;5.00;;;4.05;;
16478;SDS011;8350;52.316;10.530;2023-05-10T05:15:17;5.70;;;4.32;;
16478;SDS011;8350;52.316;10.530;2023-05-10T05:17:44;5.28;;;4.18;;
16478;SDS011;8350;52.316;10.530;2023-05-10T05:20:11;7.47;;;4.43;;
16478;SDS011;8350;52.316;10.530;2023-05-10T05:22:38;5.22;;;4.35;;
16478;SDS011;8350;52.316;10.530;2023-05-10T05:25:05;7.13;;;4.88;;
16478;SDS011;8350;52.316;10.530;2023-05-10T05:27:38;7.22;;;5.78;;
16478;SDS011;8350;52.316;10.530;2023-05-10T05:30:06;5.55;;;5.05;;
16478;SDS011;8350;52.316;10.530;2023-05-10T05:32:33;6.00;;;4.90;;
16478;SDS011;8350;52.316;10.530;2023-05-10T05:35:00;5.10;;;4.60;;
16478;SDS011;8350;52.316;10.530;2023-05-10T05:37:31;5.03;;;4.32;;
16478;SDS011;8350;52.316;10.530;2023-05-10T05:39:58;4.90;;;4.50;;
16478;SDS011;8350;52.316;10.530;2023-05-10T05:42:26;7.25;;;4.97;;
16478;SDS011;8350;52.316;10.530;2023-05-10T05:44:55;5.03;;;4.60;;
16478;SDS011;8350;52.316;10.530;2023-05-10T05:47:22;5.55;;;4.85;;
16478;SDS011;8350;52.316;10.530;2023-05-10T05:49:49;5.22;;;4.75;;
16478;SDS011;8350;52.316;10.530;2023-05-10T05:52:16;5.00;;;4.60;;
16478;SDS011;8350;52.316;10.530;2023-05-10T05:54:43;5.55;;;4.95;;
16478;SDS011;8350;52.316;10.530;2023-05-10T05:57:10;6.35;;;5.35;;
16478;SDS011;8350;52.316;10.530;2023-05-10T05:59:37;6.30;;;5.60;;
16478;SDS011;8350;52.316;10.530;2023-05-10T06:02:08;8.07;;;5.45;;
16478;SDS011;8350;52.316;10.530;2023-05-10T06:04:35;6.90;;;6.30;;
16478;SDS011;8350;52.316;10.530;2023-05-10T06:07:02;5.90;;;5.40;;
16478;SDS011;8350;52.316;10.530;2023-05-10T06:09:29;6.95;;;5.35;;
16478;SDS011;8350;52.316;10.530;2023-05-10T06:11:56;5.25;;;4.85;;
16478;SDS011;8350;52.316;10.530;2023-05-10T06:14:23;5.85;;;5.25;;
16478;SDS011;8350;52.316;10.530;2023-05-10T06:16:50;7.03;;;6.05;;
16478;SDS011;8350;52.316;10.530;2023-05-10T06:19:19;6.03;;;5.47;;
16478;SDS011;8350;52.316;10.530;2023-05-10T06:21:46;6.30;;;5.70;;
16478;SDS011;8350;52.316;10.530;2023-05-10T06:24:13;6.22;;;5.55;;
16478;SDS011;8350;52.316;10.530;2023-05-10T06:26:43;5.97;;;5.38;;
16478;SDS011;8350;52.316;10.530;2023-05-10T06:29:10;6.07;;;5.55;;
16478;SDS011;8350;52.316;10.530;2023-05-10T06:31:37;6.22;;;5.60;;
16478;SDS011;8350;52.316;10.530;2023-05-10T06:34:04;6.22;;;5.72;;
16478;SDS011;8350;52.316;10.530;2023-05-10T06:36:34;7.35;;;6.10;;
16478;SDS011;8350;52.316;10.530;2023-05-10T06:39:01;6.28;;;5.68;;
16478;SDS011;8350;52.316;10.530;2023-05-10T06:41:28;6.60;;;5.93;;
16478;SDS011;8350;52.316;10.530;2023-05-10T06:43:55;5.93;;;5.40;;
16478;SDS011;8350;52.316;10.530;2023-05-10T06:46:22;7.45;;;6.20;;
16478;SDS011;8350;52.316;10.530;2023-05-10T06:48:49;6.47;;;5.85;;
16478;SDS011;8350;52.316;10.530;2023-05-10T06:51:16;6.25;;;5.65;;
16478;SDS011;8350;52.316;10.530;2023-05-10T06:53:44;5.80;;;5.30;;
16478;SDS011;8350;52.316;10.530;2023-05-10T06:56:11;6.60;;;5.45;;
16478;SDS011;8350;52.316;10.530;2023-05-10T06:58:39;7.03;;;6.30;;
16478;SDS011;8350;52.316;10.530;2023-05-10T07:01:06;6.97;;;6.28;;
16478;SDS011;8350;52.316;10.530;2023-05-10T07:03:33;6.93;;;6.15;;
16478;SDS011;8350;52.316;10.530;2023-05-10T07:06:00;7.10;;;6.53;;
16478;SDS011;8350;52.316;10.530;2023-05-10T07:08:29;6.65;;;6.05;;
16478;SDS011;8350;52.316;10.530;2023-05-10T07:11:00;8.80;;;7.88;;
16478;SDS011;8350;52.316;10.530;2023-05-10T07:13:28;9.43;;;7.65;;
16478;SDS011;8350;52.316;10.530;2023-05-10T07:15:56;8.43;;;7.63;;
16478;SDS011;8350;52.316;10.530;2023-05-10T07:18:23;8.32;;;7.53;;
16478;SDS011;8350;52.316;10.530;2023-05-10T07:20:50;8.32;;;7.57;;
16478;SDS011;8350;52.316;10.530;2023-05-10T07:23:17;8.02;;;7.38;;
16478;SDS011;8350;52.316;10.530;2023-05-10T07:25:44;8.43;;;7.70;;
16478;SDS011;8350;52.316;10.530;2023-05-10T07:28:13;8.82;;;7.68;;
16478;SDS011;8350;52.316;10.530;2023-05-10T07:30:41;9.15;;;8.25;;
16478;SDS011;8350;52.316;10.530;2023-05-10T07:33:09;9.50;;;8.65;;
16478;SDS011;8350;52.316;10.530;2023-05-10T07:35:36;9.77;;;8.90;;
16478;SDS011;8350;52.316;10.530;2023-05-10T07:38:03;8.77;;;7.97;;
16478;SDS011;8350;52.316;10.530;2023-05-10T07:40:31;8.80;;;8.00;;
16478;SDS011;8350;52.316;10.530;2023-05-10T07:42:58;9.07;;;8.18;;
16478;SDS011;8350;52.316;10.530;2023-05-10T07:45:32;8.38;;;7.57;;
16478;SDS011;8350;52.316;10.530;2023-05-10T07:47:59;9.57;;;8.68;;
16478;SDS011;8350;52.316;10.530;2023-05-10T07:50:26;9.80;;;8.82;;
16478;SDS011;8350;52.316;10.530;2023-05-10T07:52:53;10.48;;;9.40;;
16478;SDS011;8350;52.316;10.530;2023-05-10T07:55:20;9.68;;;8.88;;
16478;SDS011;8350;52.316;10.530;2023-05-10T07:57:47;9.30;;;8.40;;
16478;SDS011;8350;52.316;10.530;2023-05-10T08:00:16;9.18;;;8.27;;
16478;SDS011;8350;52.316;10.530;2023-05-10T08:02:45;9.50;;;8.70;;
16478;SDS011;8350;52.316;10.530;2023-05-10T08:05:13;11.30;;;9.80;;
16478;SDS011;8350;52.316;10.530;2023-05-10T08:07:40;10.93;;;9.63;;
16478;SDS011;8350;52.316;10.530;2023-05-10T08:10:08;9.95;;;8.90;;
16478;SDS011;8350;52.316;10.530;2023-05-10T08:12:36;11.10;;;10.00;;
16478;SDS011;8350;52.316;10.530;2023-05-10T08:15:04;9.93;;;8.88;;
16478;SDS011;8350;52.316;10.530;2023-05-10T08:17:32;9.38;;;8.48;;
16478;SDS011;8350;52.316;10.530;2023-05-10T08:20:00;9.90;;;9.00;;
16478;SDS011;8350;52.316;10.530;2023-05-10T08:22:27;8.75;;;7.95;;
16478;SDS011;8350;52.316;10.530;2023-05-10T08:24:54;10.68;;;9.07;;
16478;SDS011;8350;52.316;10.530;2023-05-10T08:27:21;10.88;;;9.88;;
16478;SDS011;8350;52.316;10.530;2023-05-10T08:29:47;10.88;;;9.98;;
16478;SDS011;8350;52.316;10.530;2023-05-10T08:32:14;10.70;;;9.80;;
16478;SDS011;8350;52.316;10.530;2023-05-10T08:34:43;10.45;;;9.45;;
16478;SDS011;8350;52.316;10.530;2023-05-10T08:37:11;10.32;;;9.45;;
16478;SDS011;8350;52.316;10.530;2023-05-10T08:39:38;9.73;;;8.82;;
16478;SDS011;8350;52.316;10.530;2023-05-10T08:42:05;10.48;;;9.52;;
16478;SDS011;8350;52.316;10.530;2023-05-10T08:44:34;12.07;;;10.98;;
16478;SDS011;8350;52.316;10.530;2023-05-10T08:47:02;10.85;;;9.85;;
16478;SDS011;8350;52.316;10.530;2023-05-10T08:49:31;10.52;;;9.63;;
16478;SDS011;8350;52.316;10.530;2023-05-10T08:51:59;11.57;;;10.48;;
16478;SDS011;8350;52.316;10.530;2023-05-10T08:54:32;12.55;;;11.30;;
16478;SDS011;8350;52.316;10.530;2023-05-10T08:57:00;11.35;;;10.35;;
16478;SDS011;8350;52.316;10.530;2023-05-10T08:59:27;10.60;;;9.60;;
16478;SDS011;8350;52.316;10.530;2023-05-10T09:01:55;11.65;;;10.43;;
16478;SDS011;8350;52.316;10.530;2023-05-10T09:04:24;11.48;;;10.30;;
16478;SDS011;8350;52.316;10.530;2023-05-10T09:06:53;12.30;;;11.10;;
16478;SDS011;8350;52.316;10.530;2023-05-10T09:09:20;11.77;;;10.52;;
16478;SDS011;8350;52.316;10.530;2023-05-10T09:11:49;11.25;;;10.10;;
16478;SDS011;8350;52.316;10.530;2023-05-10T09:14:17;12.10;;;10.82;;
16478;SDS011;8350;52.316;10.530;2023-05-10T09:16:45;12.55;;;11.35;;
16478;SDS011;8350;52.316;10.530;2023-05-10T09:19:12;12.55;;;11.20;;
16478;SDS011;8350;52.316;10.530;2023-05-10T09:21:39;13.15;;;11.32;;
16478;SDS011;8350;52.316;10.530;2023-05-10T09:24:07;13.70;;;12.30;;
16478;SDS011;8350;52.316;10.530;2023-05-10T09:26:34;12.27;;;11.07;;
16478;SDS011;8350;52.316;10.530;2023-05-10T09:29:03;12.57;;;11.43;;
16478;SDS011;8350;52.316;10.530;2023-05-10T09:31:46;13.70;;;12.40;;
16478;SDS011;8350;52.316;10.530;2023-05-10T09:34:16;12.98;;;11.70;;
16478;SDS011;8350;52.316;10.530;2023-05-10T09:36:54;11.93;;;10.85;;
16478;SDS011;8350;52.316;10.530;2023-05-10T09:39:29;13.00;;;11.70;;
16478;SDS011;8350;52.316;10.530;2023-05-10T09:41:57;13.73;;;12.30;;
16478;SDS011;8350;52.316;10.530;2023-05-10T09:44:26;12.95;;;11.73;;
16478;SDS011;8350;52.316;10.530;2023-05-10T09:46:56;13.98;;;12.70;;
16478;SDS011;8350;52.316;10.530;2023-05-10T09:49:23;12.35;;;11.13;;
16478;SDS011;8350;52.316;10.530;2023-05-10T09:51:59;11.48;;;10.40;;
16478;SDS011;8350;52.316;10.530;2023-05-10T09:54:27;11.18;;;10.25;;
16478;SDS011;8350;52.316;10.530;2023-05-10T09:56:54;10.48;;;9.40;;
16478;SDS011;8350;52.316;10.530;2023-05-10T09:59:25;11.02;;;9.73;;
16478;SDS011;8350;52.316;10.530;2023-05-10T10:01:55;10.15;;;9.23;;
16478;SDS011;8350;52.316;10.530;2023-05-10T10:04:23;8.15;;;7.45;;
16478;SDS011;8350;52.316;10.530;2023-05-10T10:07:00;7.43;;;6.78;;
16478;SDS011;8350;52.316;10.530;2023-05-10T10:09:28;6.32;;;5.82;;
16478;SDS011;8350;52.316;10.530;2023-05-10T10:11:55;6.30;;;5.63;;
16478;SDS011;8350;52.316;10.530;2023-05-10T10:14:22;5.47;;;4.93;;
16478;SDS011;8350;52.316;10.530;2023-05-10T10:16:53;5.40;;;4.97;;
16478;SDS011;8350;52.316;10.530;2023-05-10T10:19:20;5.50;;;4.38;;
16478;SDS011;8350;52.316;10.530;2023-05-10T10:21:49;3.33;;;3.03;;
16478;SDS011;8350;52.316;10.530;2023-05-10T10:24:16;2.88;;;2.67;;
16478;SDS011;8350;52.316;10.530;2023-05-10T10:26:43;2.40;;;2.20;;
16478;SDS011;8350;52.316;10.530;2023-05-10T10:29:16;2.47;;;2.28;;
16478;SDS011;8350;52.316;10.530;2023-05-10T10:31:51;2.53;;;2.33;;
16478;SDS011;8350;52.316;10.530;2023-05-10T10:34:28;2.90;;;2.67;;
16478;SDS011;8350;52.316;10.530;2023-05-10T10:36:56;2.88;;;2.60;;
16478;SDS011;8350;52.316;10.530;2023-05-10T10:39:24;3.67;;;3.30;;
16478;SDS011;8350;52.316;10.530;2023-05-10T10:41:52;3.40;;;2.90;;
16478;SDS011;8350;52.316;10.530;2023-05-10T10:44:23;2.20;;;2.10;;
16478;SDS011;8350;52.316;10.530;2023-05-10T10:47:04;2.20;;;2.10;;
16478;SDS011;8350;52.316;10.530;2023-05-10T10:49:50;1.90;;;1.80;;
16478;SDS011;8350;52.316;10.530;2023-05-10T10:52:25;2.00;;;1.80;;
16478;SDS011;8350;52.316;10.530;2023-05-10T10:54:58;2.97;;;1.60;;
16478;SDS011;8350;52.316;10.530;2023-05-10T10:57:26;3.47;;;2.30;;
16478;SDS011;8350;52.316;10.530;2023-05-10T11:02:50;2.95;;;2.03;;
16478;SDS011;8350;52.316;10.530;2023-05-10T11:08:07;2.33;;;1.50;;
16478;SDS011;8350;52.316;10.530;2023-05-10T11:10:49;1.98;;;1.50;;
16478;SDS011;8350;52.316;10.530;2023-05-10T11:13:26;1.70;;;1.50;;
16478;SDS011;8350;52.316;10.530;2023-05-10T11:15:55;1.60;;;1.50;;
16478;SDS011;8350;52.316;10.530;2023-05-10T11:18:25;1.67;;;1.58;;
16478;SDS011;8350;52.316;10.530;2023-05-10T11:20:55;1.98;;;1.73;;
16478;SDS011;8350;52.316;10.530;2023-05-10T11:23:29;1.80;;;1.70;;
16478;SDS011;8350;52.316;10.530;2023-05-10T11:25:59;2.25;;;2.00;;
16478;SDS011;8350;52.316;10.530;2023-05-10T11:28:30;4.07;;;1.70;;
16478;SDS011;8350;52.316;10.530;2023-05-10T11:30:57;2.65;;;2.20;;
16478;SDS011;8350;52.316;10.530;2023-05-10T11:33:25;2.70;;;2.50;;
16478;SDS011;8350;52.316;10.530;2023-05-10T11:35:52;2.40;;;2.03;;
16478;SDS011;8350;52.316;10.530;2023-05-10T11:38:19;2.63;;;2.42;;
16478;SDS011;8350;52.316;10.530;2023-05-10T11:40:46;2.50;;;2.30;;
16478;SDS011;8350;52.316;10.530;2023-05-10T11:43:18;2.20;;;2.10;;
16478;SDS011;8350;52.316;10.530;2023-05-10T11:45:45;2.38;;;1.85;;
16478;SDS011;8350;52.316;10.530;2023-05-10T11:48:12;2.10;;;1.88;;
16478;SDS011;8350;52.316;10.530;2023-05-10T11:50:40;3.85;;;2.40;;
16478;SDS011;8350;52.316;10.530;2023-05-10T11:53:07;2.58;;;2.38;;
16478;SDS011;8350;52.316;10.530;2023-05-10T11:55:34;3.10;;;2.38;;
16478;SDS011;8350;52.316;10.530;2023-05-10T11:58:01;2.92;;;2.60;;
16478;SDS011;8350;52.316;10.530;2023-05-10T12:00:28;3.28;;;2.80;;
16478;SDS011;8350;52.316;10.530;2023-05-10T12:03:00;3.67;;;2.83;;
16478;SDS011;8350;52.316;10.530;2023-05-10T12:05:27;2.72;;;2.53;;
16478;SDS011;8350;52.316;10.530;2023-05-10T12:08:13;2.75;;;2.25;;
16478;SDS011;8350;52.316;10.530;2023-05-10T12:10:40;3.70;;;2.50;;
16478;SDS011;8350;52.316;10.530;2023-05-10T12:13:10;2.22;;;2.03;;
16478;SDS011;8350;52.316;10.530;2023-05-10T12:15:38;2.92;;;2.45;;
16478;SDS011;8350;52.316;10.530;2023-05-10T12:18:11;2.15;;;2.00;;
16478;SDS011;8350;52.316;10.530;2023-05-10T12:20:39;1.95;;;1.83;;
16478;SDS011;8350;52.316;10.530;2023-05-10T12:23:08;1.75;;;1.65;;
16478;SDS011;8350;52.316;10.530;2023-05-10T12:25:39;4.22;;;2.30;;
16478;SDS011;8350;52.316;10.530;2023-05-10T12:28:07;2.92;;;2.10;;
16478;SDS011;8350;52.316;10.530;2023-05-10T12:30:35;2.30;;;2.10;;
16478;SDS011;8350;52.316;10.530;2023-05-10T12:33:06;3.22;;;1.90;;
16478;SDS011;8350;52.316;10.530;2023-05-10T12:35:43;2.85;;;2.10;;
16478;SDS011;8350;52.316;10.530;2023-05-10T12:38:26;2.40;;;2.20;;
16478;SDS011;8350;52.316;10.530;2023-05-10T12:40:57;1.90;;;1.75;;
16478;SDS011;8350;52.316;10.530;2023-05-10T12:43:24;1.70;;;1.50;;
16478;SDS011;8350;52.316;10.530;2023-05-10T12:45:51;3.42;;;2.05;;
16478;SDS011;8350;52.316;10.530;2023-05-10T12:48:19;2.50;;;2.00;;
16478;SDS011;8350;52.316;10.530;2023-05-10T12:50:46;5.10;;;2.03;;
16478;SDS011;8350;52.316;10.530;2023-05-10T12:53:15;3.83;;;1.95;;
16478;SDS011;8350;52.316;10.530;2023-05-10T12:55:42;2.03;;;1.65;;
16478;SDS011;8350;52.316;10.530;2023-05-10T12:58:11;2.90;;;1.75;;
16478;SDS011;8350;52.316;10.530;2023-05-10T13:00:38;3.40;;;2.05;;
16478;SDS011;8350;52.316;10.530;2023-05-10T13:03:05;1.95;;;1.50;;
16478;SDS011;8350;52.316;10.530;2023-05-10T13:05:35;2.85;;;2.22;;
16478;SDS011;8350;52.316;10.530;2023-05-10T13:08:02;2.25;;;1.70;;
16478;SDS011;8350;52.316;10.530;2023-05-10T13:10:30;3.80;;;1.95;;
16478;SDS011;8350;52.316;10.530;2023-05-10T13:12:57;2.65;;;1.58;;
16478;SDS011;8350;52.316;10.530;2023-05-10T13:15:26;3.47;;;1.30;;
16478;SDS011;8350;52.316;10.530;2023-05-10T13:17:53;2.03;;;1.65;;
16478;SDS011;8350;52.316;10.530;2023-05-10T13:20:20;2.03;;;1.60;;
16478;SDS011;8350;52.316;10.530;2023-05-10T13:22:47;1.60;;;1.50;;
16478;SDS011;8350;52.316;10.530;2023-05-10T13:25:14;1.92;;;1.50;;
16478;SDS011;8350;52.316;10.530;2023-05-10T13:27:41;3.17;;;1.70;;
16478;SDS011;8350;52.316;10.530;2023-05-10T13:30:09;2.00;;;1.23;;
16478;SDS011;8350;52.316;10.530;2023-05-10T13:32:37;2.15;;;1.70;;
16478;SDS011;8350;52.316;10.530;2023-05-10T13:35:06;1.70;;;1.40;;
16478;SDS011;8350;52.316;10.530;2023-05-10T13:37:33;2.70;;;1.80;;
16478;SDS011;8350;52.316;10.530;2023-05-10T13:40:02;2.75;;;1.50;;
16478;SDS011;8350;52.316;10.530;2023-05-10T13:42:31;2.42;;;1.38;;
16478;SDS011;8350;52.316;10.530;2023-05-10T13:44:58;3.05;;;1.67;;
16478;SDS011;8350;52.316;10.530;2023-05-10T13:47:26;1.98;;;1.05;;
16478;SDS011;8350;52.316;10.530;2023-05-10T13:49:54;2.72;;;1.40;;
16478;SDS011;8350;52.316;10.530;2023-05-10T13:52:23;1.80;;;1.25;;
16478;SDS011;8350;52.316;10.530;2023-05-10T13:54:50;1.67;;;1.48;;
16478;SDS011;8350;52.316;10.530;2023-05-10T13:57:19;2.15;;;1.45;;
16478;SDS011;8350;52.316;10.530;2023-05-10T13:59:46;2.50;;;1.40;;
16478;SDS011;8350;52.316;10.530;2023-05-10T14:02:13;1.92;;;1.48;;
16478;SDS011;8350;52.316;10.530;2023-05-10T14:04:40;2.58;;;1.45;;
16478;SDS011;8350;52.316;10.530;2023-05-10T14:07:09;3.45;;;1.77;;
16478;SDS011;8350;52.316;10.530;2023-05-10T14:09:36;1.95;;;1.63;;
16478;SDS011;8350;52.316;10.530;2023-05-10T14:12:03;1.92;;;1.48;;
16478;SDS011;8350;52.316;10.530;2023-05-10T14:14:30;1.83;;;1.58;;
16478;SDS011;8350;52.316;10.530;2023-05-10T14:16:57;2.22;;;1.60;;
16478;SDS011;8350;52.316;10.530;2023-05-10T14:19:24;2.00;;;1.50;;
16478;SDS011;8350;52.316;10.530;2023-05-10T14:21:55;2.10;;;1.40;;
16478;SDS011;8350;52.316;10.530;2023-05-10T14:24:24;2.25;;;1.55;;
16478;SDS011;8350;52.316;10.530;2023-05-10T14:26:51;2.13;;;1.17;;
16478;SDS011;8350;52.316;10.530;2023-05-10T14:29:19;1.52;;;1.10;;
16478;SDS011;8350;52.316;10.530;2023-05-10T14:31:46;1.80;;;1.42;;
16478;SDS011;8350;52.316;10.530;2023-05-10T14:34:16;3.30;;;1.63;;
16478;SDS011;8350;52.316;10.530;2023-05-10T14:36:43;1.20;;;1.10;;
16478;SDS011;8350;52.316;10.530;2023-05-10T14:39:09;1.52;;;1.15;;
16478;SDS011;8350;52.316;10.530;2023-05-10T14:41:39;1.85;;;0.95;;
16478;SDS011;8350;52.316;10.530;2023-05-10T14:44:08;2.13;;;1.20;;
16478;SDS011;8350;52.316;10.530;2023-05-10T14:46:35;2.92;;;1.48;;
16478;SDS011;8350;52.316;10.530;2023-05-10T14:49:02;1.63;;;1.23;;
16478;SDS011;8350;52.316;10.530;2023-05-10T14:51:28;2.80;;;1.35;;
16478;SDS011;8350;52.316;10.530;2023-05-10T14:53:56;1.45;;;1.30;;
16478;SDS011;8350;52.316;10.530;2023-05-10T14:56:23;1.98;;;1.50;;
16478;SDS011;8350;52.316;10.530;2023-05-10T14:58:52;1.77;;;1.30;;
16478;SDS011;8350;52.316;10.530;2023-05-10T15:01:19;2.05;;;1.20;;
16478;SDS011;8350;52.316;10.530;2023-05-10T15:03:46;1.73;;;1.40;;